createdAt,value
2023-05-09T00:01:43.815Z,28.77
2023-05-09T00:04:11.265Z,27.23
2023-05-09T00:06:38.419Z,27.07
2023-05-09T00:09:05.556Z,26.20
2023-05-09T00:11:32.682Z,26.63
2023-05-09T00:13:59.796Z,25.73
2023-05-09T00:16:26.970Z,24.83
2023-05-09T00:18:54.121Z,24.70
2023-05-09T00:21:21.250Z,24.03
2023-05-09T00:23:48.428Z,24.30
2023-05-09T00:26:16.292Z,23.53
2023-05-09T00:28:43.438Z,27.97
2023-05-09T00:31:10.634Z,26.77
2023-05-09T00:33:37.762Z,25.97
2023-05-09T00:36:05.071Z,32.80
2023-05-09T00:38:32.259Z,28.10
2023-05-09T00:40:59.393Z,25.47
2023-05-09T00:43:26.580Z,23.37
2023-05-09T00:45:53.738Z,25.63
2023-05-09T00:48:20.907Z,24.43
2023-05-09T00:50:52.723Z,23.07
2023-05-09T00:53:20.783Z,22.10
2023-05-09T00:55:47.962Z,22.80
2023-05-09T00:58:15.119Z,22.27
2023-05-09T01:00:43.436Z,25.87
2023-05-09T01:03:10.673Z,23.47
2023-05-09T01:05:51.781Z,23.60
2023-05-09T01:08:24.305Z,23.13
2023-05-09T01:10:57.591Z,23.43
2023-05-09T01:13:39.119Z,24.73
2023-05-09T01:16:12.178Z,23.77
2023-05-09T01:18:46.860Z,24.33
2023-05-09T01:21:19.560Z,24.13
2023-05-09T01:23:55.071Z,23.63
2023-05-09T01:26:41.197Z,22.07
2023-05-09T01:29:16.041Z,22.57
2023-05-09T01:31:43.252Z,23.53
2023-05-09T01:34:10.726Z,22.13
2023-05-09T01:36:38.136Z,21.87
2023-05-09T01:39:05.345Z,21.60
2023-05-09T01:41:32.564Z,23.10
2023-05-09T01:43:59.945Z,24.53
2023-05-09T01:46:27.171Z,29.97
2023-05-09T01:48:54.339Z,35.57
2023-05-09T01:51:21.521Z,37.17
2023-05-09T01:53:49.012Z,35.93
2023-05-09T01:56:16.165Z,37.30
2023-05-09T01:58:43.326Z,38.50
2023-05-09T02:01:10.576Z,37.87
2023-05-09T02:03:37.986Z,38.03
2023-05-09T02:06:05.145Z,41.40
2023-05-09T02:08:32.842Z,40.33
2023-05-09T02:10:59.992Z,37.17
2023-05-09T02:13:27.193Z,36.90
2023-05-09T02:15:54.425Z,40.63
2023-05-09T02:18:21.866Z,43.73
2023-05-09T02:20:49.030Z,36.60
2023-05-09T02:23:16.308Z,37.57
2023-05-09T02:25:43.412Z,40.13
2023-05-09T02:28:10.585Z,34.57
2023-05-09T02:30:39.715Z,36.53
2023-05-09T02:33:07.138Z,35.57
2023-05-09T02:35:34.338Z,34.40
2023-05-09T02:38:01.587Z,35.00
2023-05-09T02:40:28.857Z,34.97
2023-05-09T02:42:56.209Z,41.00
2023-05-09T02:45:23.481Z,39.37
2023-05-09T02:47:50.770Z,46.03
2023-05-09T02:50:17.950Z,41.00
2023-05-09T02:52:45.143Z,33.20
2023-05-09T02:55:12.448Z,31.60
2023-05-09T02:57:39.853Z,34.83
2023-05-09T03:00:10.181Z,34.90
2023-05-09T03:02:37.799Z,41.93
2023-05-09T03:05:05.729Z,42.87
2023-05-09T03:07:32.880Z,43.53
2023-05-09T03:09:59.997Z,46.33
2023-05-09T03:12:27.104Z,49.73
2023-05-09T03:14:54.244Z,52.07
2023-05-09T03:17:21.531Z,52.97
2023-05-09T03:19:48.863Z,53.40
2023-05-09T03:22:16.177Z,54.97
2023-05-09T03:24:43.702Z,52.07
2023-05-09T03:27:10.887Z,51.83
2023-05-09T03:29:38.074Z,50.20
2023-05-09T03:32:05.364Z,49.83
2023-05-09T03:34:32.522Z,52.37
2023-05-09T03:36:59.693Z,54.53
2023-05-09T03:39:26.826Z,53.53
2023-05-09T03:41:54.136Z,53.67
2023-05-09T03:44:23.265Z,51.83
2023-05-09T03:46:50.608Z,53.60
2023-05-09T03:49:17.793Z,50.23
2023-05-09T03:51:44.932Z,49.07
2023-05-09T03:54:12.263Z,48.20
2023-05-09T03:56:39.406Z,47.03
2023-05-09T03:59:06.543Z,45.70
2023-05-09T04:01:33.960Z,46.80
2023-05-09T04:04:01.204Z,46.67
2023-05-09T04:06:30.097Z,48.30
2023-05-09T04:08:57.242Z,45.13
2023-05-09T04:11:24.426Z,44.90
2023-05-09T04:13:51.566Z,45.90
2023-05-09T04:16:18.724Z,42.67
2023-05-09T04:18:45.956Z,46.90
2023-05-09T04:21:13.159Z,45.47
2023-05-09T04:23:40.338Z,44.10
2023-05-09T04:26:09.635Z,43.43
2023-05-09T04:28:36.772Z,44.43
2023-05-09T04:31:04.017Z,45.70
2023-05-09T04:33:31.236Z,40.83
2023-05-09T04:35:58.694Z,38.77
2023-05-09T04:38:25.892Z,40.43
2023-05-09T04:40:53.096Z,101.97
2023-05-09T04:43:20.319Z,76.60
2023-05-09T04:45:47.899Z,38.43
2023-05-09T04:48:15.032Z,38.40
2023-05-09T04:50:42.220Z,36.77
2023-05-09T04:53:09.412Z,35.93
2023-05-09T04:55:36.630Z,37.17
2023-05-09T04:58:03.841Z,40.63
2023-05-09T05:00:31.011Z,35.07
2023-05-09T05:02:58.213Z,32.97
2023-05-09T05:05:25.877Z,34.37
2023-05-09T05:07:54.162Z,41.80
2023-05-09T05:10:21.351Z,37.63
2023-05-09T05:12:48.586Z,31.00
2023-05-09T05:15:16.065Z,34.10
2023-05-09T05:17:43.463Z,35.07
2023-05-09T05:20:10.743Z,31.30
2023-05-09T05:22:37.996Z,30.80
2023-05-09T05:25:05.444Z,29.83
2023-05-09T05:27:32.627Z,30.67
2023-05-09T05:29:59.830Z,29.53
2023-05-09T05:32:27.009Z,30.63
2023-05-09T05:34:54.165Z,29.63
2023-05-09T05:37:21.341Z,28.60
2023-05-09T05:39:48.969Z,28.00
2023-05-09T05:42:16.191Z,26.27
2023-05-09T05:44:43.309Z,27.67
2023-05-09T05:47:10.480Z,25.13
2023-05-09T05:49:37.673Z,24.07
2023-05-09T05:52:04.880Z,19.97
2023-05-09T05:54:32.045Z,16.67
2023-05-09T05:56:59.253Z,15.07
2023-05-09T05:59:26.406Z,14.27
2023-05-09T06:01:53.551Z,13.10
2023-05-09T06:04:20.815Z,11.57
2023-05-09T06:06:47.957Z,10.93
2023-05-09T06:09:15.081Z,10.80
2023-05-09T06:11:42.256Z,9.77
2023-05-09T06:14:09.378Z,10.13
2023-05-09T06:16:36.531Z,8.43
2023-05-09T06:19:03.788Z,8.35
2023-05-09T06:21:31.134Z,7.63
2023-05-09T06:24:09.803Z,8.13
2023-05-09T06:26:41.530Z,7.72
2023-05-09T06:29:08.679Z,7.43
2023-05-09T06:31:38.527Z,6.78
2023-05-09T06:34:06.171Z,6.28
2023-05-09T06:36:33.624Z,5.97
2023-05-09T06:39:00.856Z,5.97
2023-05-09T06:41:28.059Z,4.75
2023-05-09T06:43:55.289Z,4.95
2023-05-09T06:46:22.529Z,4.35
2023-05-09T06:48:49.780Z,5.65
2023-05-09T06:51:16.963Z,3.63
2023-05-09T06:53:44.099Z,4.50
2023-05-09T06:56:11.255Z,3.15
2023-05-09T06:58:38.436Z,3.22
2023-05-09T07:01:05.676Z,3.13
2023-05-09T07:03:33.154Z,3.20
2023-05-09T07:06:00.277Z,3.20
2023-05-09T07:08:27.406Z,3.15
2023-05-09T07:10:54.556Z,2.80
2023-05-09T07:13:21.744Z,3.00
2023-05-09T07:15:49.015Z,2.70
2023-05-09T07:18:16.179Z,3.00
2023-05-09T07:20:43.402Z,2.85
2023-05-09T07:23:10.632Z,3.13
2023-05-09T07:25:37.775Z,2.90
2023-05-09T07:28:04.997Z,2.80
2023-05-09T07:30:32.179Z,2.80
2023-05-09T07:32:59.419Z,2.55
2023-05-09T07:35:27.767Z,2.50
2023-05-09T07:37:54.925Z,2.55
2023-05-09T07:40:22.071Z,2.45
2023-05-09T07:42:50.079Z,2.67
2023-05-09T07:45:19.417Z,2.40
2023-05-09T07:47:47.797Z,2.45
2023-05-09T07:50:14.987Z,2.70
2023-05-09T07:52:42.149Z,2.45
2023-05-09T07:55:09.787Z,2.58
2023-05-09T07:57:36.971Z,2.80
2023-05-09T08:00:06.287Z,2.92
2023-05-09T08:02:33.523Z,2.30
2023-05-09T08:05:00.818Z,2.30
2023-05-09T08:07:27.949Z,2.28
2023-05-09T08:09:55.121Z,2.40
2023-05-09T08:12:22.306Z,2.53
2023-05-09T08:14:49.549Z,2.20
2023-05-09T08:17:16.953Z,2.17
2023-05-09T08:19:44.076Z,4.65
2023-05-09T08:22:16.954Z,2.50
2023-05-09T08:24:44.144Z,1.58
2023-05-09T08:27:13.384Z,1.80
2023-05-09T08:29:40.876Z,1.80
2023-05-09T08:32:08.189Z,2.35
2023-05-09T08:34:35.416Z,2.20
2023-05-09T08:37:02.790Z,2.20
2023-05-09T08:39:29.967Z,1.70
2023-05-09T08:42:00.131Z,2.00
2023-05-09T08:44:27.967Z,2.08
2023-05-09T08:46:59.895Z,2.60
2023-05-09T08:49:27.970Z,1.90
2023-05-09T08:51:55.634Z,1.95
2023-05-09T08:54:23.185Z,2.00
2023-05-09T08:56:51.015Z,2.10
2023-05-09T08:59:18.770Z,3.13
2023-05-09T09:01:46.009Z,2.38
2023-05-09T09:04:13.321Z,1.70
2023-05-09T09:06:40.780Z,1.50
2023-05-09T09:09:11.457Z,2.10
2023-05-09T09:11:38.961Z,2.13
2023-05-09T09:14:07.538Z,1.55
2023-05-09T09:16:34.901Z,4.20
2023-05-09T09:19:02.025Z,1.35
2023-05-09T09:21:29.135Z,1.40
2023-05-09T09:23:56.851Z,1.63
2023-05-09T09:26:24.776Z,1.48
2023-05-09T09:28:51.972Z,2.85
2023-05-09T09:31:22.765Z,1.30
2023-05-09T09:33:50.030Z,1.55
2023-05-09T09:36:17.176Z,1.30
2023-05-09T09:38:44.710Z,1.83
2023-05-09T09:41:12.431Z,1.42
2023-05-09T09:43:39.626Z,1.40
2023-05-09T09:46:06.916Z,1.80
2023-05-09T09:48:34.803Z,1.20
2023-05-09T09:51:11.731Z,1.60
2023-05-09T09:53:42.296Z,1.48
2023-05-09T09:56:09.570Z,1.35
2023-05-09T09:58:36.794Z,1.50
2023-05-09T10:01:09.841Z,1.90
2023-05-09T10:03:37.759Z,1.85
2023-05-09T10:06:05.425Z,1.50
2023-05-09T10:08:32.669Z,1.50
2023-05-09T10:11:00.109Z,1.35
2023-05-09T10:13:27.265Z,1.80
2023-05-09T10:15:55.653Z,1.35
2023-05-09T10:18:25.311Z,1.67
2023-05-09T10:20:52.694Z,1.40
2023-05-09T10:23:19.869Z,1.48
2023-05-09T10:25:53.630Z,1.50
2023-05-09T10:28:22.692Z,1.50
2023-05-09T10:31:08.042Z,1.60
2023-05-09T10:33:38.886Z,1.70
2023-05-09T10:36:06.112Z,1.42
2023-05-09T10:38:33.270Z,1.50
2023-05-09T10:41:00.372Z,1.60
2023-05-09T10:43:27.565Z,1.50
2023-05-09T10:45:54.704Z,1.60
2023-05-09T10:48:22.679Z,1.70
2023-05-09T10:50:50.116Z,1.40
2023-05-09T10:53:17.938Z,1.38
2023-05-09T10:55:48.099Z,1.65
2023-05-09T10:58:21.871Z,1.33
2023-05-09T11:00:49.496Z,1.60
2023-05-09T11:03:19.201Z,1.45
2023-05-09T11:05:50.554Z,1.48
2023-05-09T11:08:21.469Z,1.70
2023-05-09T11:10:48.752Z,1.50
2023-05-09T11:13:19.283Z,1.40
2023-05-09T11:16:01.815Z,1.50
2023-05-09T11:18:35.395Z,1.58
2023-05-09T11:21:08.541Z,1.50
2023-05-09T11:23:35.779Z,1.65
2023-05-09T11:26:09.392Z,1.50
2023-05-09T11:28:37.690Z,1.58
2023-05-09T11:31:14.506Z,1.40
2023-05-09T11:33:42.233Z,1.50
2023-05-09T11:36:19.531Z,1.30
2023-05-09T11:38:49.450Z,1.40
2023-05-09T11:41:16.690Z,1.58
2023-05-09T11:43:44.939Z,1.42
2023-05-09T11:46:12.948Z,1.40
2023-05-09T11:48:40.409Z,1.42
2023-05-09T11:51:07.584Z,1.40
2023-05-09T11:53:34.844Z,1.75
2023-05-09T11:56:05.742Z,1.65
2023-05-09T11:58:32.869Z,2.20
2023-05-09T12:01:00.133Z,1.52
2023-05-09T12:03:27.427Z,1.50
2023-05-09T12:05:55.584Z,1.38
2023-05-09T12:08:23.118Z,1.65
2023-05-09T12:10:50.257Z,2.17
2023-05-09T12:13:18.185Z,1.45
2023-05-09T12:15:45.562Z,1.70
2023-05-09T12:18:12.774Z,1.70
2023-05-09T12:20:42.782Z,1.10
2023-05-09T12:23:11.552Z,1.30
2023-05-09T12:25:38.751Z,1.40
2023-05-09T12:28:06.189Z,1.25
2023-05-09T12:30:33.377Z,1.35
2023-05-09T12:33:00.944Z,1.20
2023-05-09T12:35:28.164Z,1.48
2023-05-09T12:37:56.497Z,1.50
2023-05-09T12:40:23.726Z,1.70
2023-05-09T12:42:53.693Z,1.50
2023-05-09T12:45:21.111Z,1.30
2023-05-09T12:47:51.968Z,1.30
2023-05-09T12:50:19.307Z,1.15
2023-05-09T12:53:02.096Z,1.20
2023-05-09T12:55:31.659Z,1.23
2023-05-09T12:58:02.624Z,1.30
2023-05-09T13:00:29.996Z,1.40
2023-05-09T13:02:57.361Z,1.48
2023-05-09T13:05:24.677Z,1.40
2023-05-09T13:07:52.604Z,1.30
2023-05-09T13:10:23.660Z,1.55
2023-05-09T13:12:51.473Z,1.33
2023-05-09T13:15:22.524Z,5.22
2023-05-09T13:17:53.232Z,2.15
2023-05-09T13:20:20.393Z,1.70
2023-05-09T13:22:47.642Z,1.40
2023-05-09T13:25:16.088Z,1.30
2023-05-09T13:27:43.216Z,1.40
2023-05-09T13:30:10.571Z,1.55
2023-05-09T13:32:37.766Z,1.52
2023-05-09T13:35:07.547Z,1.90
2023-05-09T13:37:35.074Z,1.52
2023-05-09T13:40:02.514Z,1.40
2023-05-09T13:42:29.794Z,1.30
2023-05-09T13:44:56.936Z,1.25
2023-05-09T13:47:24.078Z,1.20
2023-05-09T13:49:52.229Z,1.50
2023-05-09T13:52:19.533Z,1.20
2023-05-09T13:54:47.215Z,1.60
2023-05-09T13:57:14.378Z,1.80
2023-05-09T13:59:41.635Z,1.30
2023-05-09T14:02:08.955Z,1.60
2023-05-09T14:04:36.117Z,1.92
2023-05-09T14:07:03.263Z,1.35
2023-05-09T14:09:30.508Z,1.17
2023-05-09T14:11:57.673Z,1.42
2023-05-09T14:14:25.585Z,1.40
2023-05-09T14:16:53.992Z,1.27
2023-05-09T14:19:21.506Z,1.52
2023-05-09T14:21:48.697Z,1.70
2023-05-09T14:24:16.477Z,1.35
2023-05-09T14:26:43.835Z,1.40
2023-05-09T14:29:11.183Z,1.27
2023-05-09T14:31:38.489Z,1.40
2023-05-09T14:34:06.185Z,1.50
2023-05-09T14:36:33.483Z,1.60
2023-05-09T14:39:00.649Z,1.77
2023-05-09T14:41:27.768Z,1.55
2023-05-09T14:43:54.942Z,1.40
2023-05-09T14:46:24.765Z,1.50
2023-05-09T14:48:52.806Z,1.40
2023-05-09T14:51:20.020Z,1.40
2023-05-09T14:53:47.280Z,1.33
2023-05-09T14:56:14.541Z,1.20
2023-05-09T14:58:41.695Z,1.30
2023-05-09T15:01:08.907Z,1.80
2023-05-09T15:03:36.167Z,1.70
2023-05-09T15:06:03.362Z,1.50
2023-05-09T15:08:30.548Z,1.40
2023-05-09T15:10:57.838Z,1.30
2023-05-09T15:13:25.009Z,1.70
2023-05-09T15:15:52.483Z,1.80
2023-05-09T15:18:21.554Z,1.67
2023-05-09T15:20:48.811Z,1.40
2023-05-09T15:23:15.988Z,1.40
2023-05-09T15:25:43.392Z,1.45
2023-05-09T15:28:10.902Z,1.50
2023-05-09T15:30:41.099Z,1.77
2023-05-09T15:33:08.472Z,1.48
2023-05-09T15:35:35.826Z,1.40
2023-05-09T15:38:03.036Z,1.42
2023-05-09T15:40:30.212Z,1.48
2023-05-09T15:42:58.398Z,1.50
2023-05-09T15:45:25.678Z,1.58
2023-05-09T15:47:53.880Z,2.80
2023-05-09T15:50:21.317Z,1.98
2023-05-09T15:52:48.638Z,1.40
2023-05-09T15:55:15.783Z,1.50
2023-05-09T15:57:45.120Z,1.90
2023-05-09T16:00:12.687Z,1.45
2023-05-09T16:02:40.813Z,1.73
2023-05-09T16:05:08.144Z,2.00
2023-05-09T16:07:35.889Z,1.50
2023-05-09T16:10:03.322Z,7.07
2023-05-09T16:12:32.812Z,1.85
2023-05-09T16:15:00.253Z,1.48
2023-05-09T16:17:27.441Z,1.60
2023-05-09T16:19:55.536Z,1.63
2023-05-09T16:22:22.734Z,1.50
2023-05-09T16:24:49.924Z,2.05
2023-05-09T16:27:17.329Z,3.78
2023-05-09T16:29:44.485Z,1.75
2023-05-09T16:32:11.704Z,1.60
2023-05-09T16:34:38.967Z,2.05
2023-05-09T16:37:06.243Z,3.05
2023-05-09T16:39:33.424Z,1.73
2023-05-09T16:42:00.711Z,2.20
2023-05-09T16:44:28.327Z,2.17
2023-05-09T16:46:55.616Z,1.88
2023-05-09T16:49:22.788Z,1.83
2023-05-09T16:51:50.480Z,1.83
2023-05-09T16:54:17.628Z,2.72
2023-05-09T16:56:44.789Z,3.45
2023-05-09T16:59:11.978Z,4.75
2023-05-09T17:01:39.433Z,2.15
2023-05-09T17:04:06.891Z,1.85
2023-05-09T17:06:34.347Z,1.70
2023-05-09T17:09:01.697Z,1.80
2023-05-09T17:11:29.092Z,1.90
2023-05-09T17:13:56.359Z,1.90
2023-05-09T17:16:23.587Z,1.80
2023-05-09T17:18:52.039Z,2.75
2023-05-09T17:21:20.305Z,1.95
2023-05-09T17:23:47.489Z,2.72
2023-05-09T17:26:14.683Z,1.52
2023-05-09T17:28:41.856Z,2.08
2023-05-09T17:31:09.035Z,2.25
2023-05-09T17:33:36.255Z,2.28
2023-05-09T17:36:03.805Z,1.90
2023-05-09T17:38:30.955Z,1.90
2023-05-09T17:40:58.383Z,1.90
2023-05-09T17:43:27.750Z,2.00
2023-05-09T17:45:55.175Z,2.25
2023-05-09T17:48:22.513Z,2.40
2023-05-09T17:50:49.931Z,2.10
2023-05-09T17:53:17.216Z,2.28
2023-05-09T17:55:44.667Z,2.70
2023-05-09T17:58:11.880Z,3.97
2023-05-09T18:00:39.020Z,5.57
2023-05-09T18:03:06.283Z,5.50
2023-05-09T18:05:33.614Z,4.60
2023-05-09T18:08:01.341Z,18.60
2023-05-09T18:10:29.044Z,8.48
2023-05-09T18:12:56.309Z,9.55
2023-05-09T18:15:23.488Z,5.43
2023-05-09T18:17:50.693Z,5.10
2023-05-09T18:20:18.123Z,5.25
2023-05-09T18:22:45.455Z,5.82
2023-05-09T18:25:12.632Z,15.57
2023-05-09T18:27:39.989Z,18.98
2023-05-09T18:30:07.525Z,24.58
2023-05-09T18:32:34.674Z,24.30
2023-05-09T18:35:01.883Z,24.67
2023-05-09T18:37:29.064Z,25.77
2023-05-09T18:39:56.571Z,27.17
2023-05-09T18:42:23.760Z,28.65
2023-05-09T18:44:51.151Z,27.13
2023-05-09T18:47:18.552Z,23.35
2023-05-09T18:49:46.238Z,21.52
2023-05-09T18:52:13.821Z,21.65
2023-05-09T18:54:41.187Z,18.92
2023-05-09T18:57:08.591Z,25.63
2023-05-09T18:59:35.861Z,30.15
2023-05-09T19:02:03.015Z,28.35
2023-05-09T19:04:30.564Z,34.55
2023-05-09T19:06:59.421Z,34.20
2023-05-09T19:09:26.779Z,36.10
2023-05-09T19:11:54.088Z,33.95
2023-05-09T19:14:21.257Z,40.50
2023-05-09T19:16:48.540Z,49.83
2023-05-09T19:19:15.875Z,50.00
2023-05-09T19:21:43.580Z,46.85
2023-05-09T19:24:10.747Z,43.55
2023-05-09T19:26:37.913Z,46.20
2023-05-09T19:29:08.063Z,44.13
2023-05-09T19:31:37.034Z,45.88
2023-05-09T19:34:04.229Z,49.92
2023-05-09T19:36:31.411Z,48.80
2023-05-09T19:38:58.557Z,48.17
2023-05-09T19:41:26.000Z,44.55
2023-05-09T19:43:53.159Z,43.72
2023-05-09T19:46:20.361Z,42.75
2023-05-09T19:48:47.512Z,45.28
2023-05-09T19:51:15.473Z,41.17
2023-05-09T19:53:42.597Z,44.00
2023-05-09T19:56:09.948Z,96.53
2023-05-09T19:58:37.138Z,61.97
2023-05-09T20:01:07.418Z,53.38
2023-05-09T20:03:38.649Z,45.72
2023-05-09T20:06:06.056Z,31.98
2023-05-09T20:08:33.850Z,42.10
2023-05-09T20:11:01.026Z,32.30
2023-05-09T20:13:28.244Z,39.20
2023-05-09T20:15:55.503Z,38.17
2023-05-09T20:18:22.729Z,45.67
2023-05-09T20:20:50.037Z,47.17
2023-05-09T20:23:17.168Z,37.83
2023-05-09T20:25:44.360Z,23.23
2023-05-09T20:28:12.365Z,24.92
2023-05-09T20:30:39.567Z,27.40
2023-05-09T20:33:06.765Z,23.80
2023-05-09T20:35:33.916Z,29.42
2023-05-09T20:38:01.243Z,29.58
2023-05-09T20:40:28.629Z,26.48
2023-05-09T20:42:55.704Z,27.17
2023-05-09T20:45:22.888Z,24.90
2023-05-09T20:47:50.098Z,24.60
2023-05-09T20:50:17.696Z,20.13
2023-05-09T20:52:45.050Z,23.55
2023-05-09T20:55:12.217Z,24.38
2023-05-09T20:57:39.312Z,23.23
2023-05-09T21:00:07.580Z,25.77
2023-05-09T21:02:35.192Z,30.23
2023-05-09T21:05:02.416Z,25.13
2023-05-09T21:07:29.540Z,26.57
2023-05-09T21:09:57.107Z,27.53
2023-05-09T21:12:24.257Z,26.67
2023-05-09T21:14:51.427Z,26.52
2023-05-09T21:17:18.747Z,24.77
2023-05-09T21:19:45.927Z,26.63
2023-05-09T21:22:13.054Z,24.10
2023-05-09T21:24:40.215Z,25.87
2023-05-09T21:27:07.387Z,28.23
2023-05-09T21:29:34.501Z,30.97
2023-05-09T21:32:01.688Z,29.57
2023-05-09T21:34:28.872Z,27.10
2023-05-09T21:36:56.042Z,28.50
2023-05-09T21:39:23.172Z,25.70
2023-05-09T21:42:08.905Z,27.30
2023-05-09T21:44:36.341Z,26.27
2023-05-09T21:47:03.512Z,29.47
2023-05-09T21:49:30.784Z,25.70
2023-05-09T21:51:57.950Z,26.37
2023-05-09T21:54:25.042Z,23.07
2023-05-09T21:56:52.159Z,20.63
2023-05-09T21:59:20.831Z,18.93
2023-05-09T22:01:47.969Z,17.30
2023-05-09T22:04:15.370Z,19.00
2023-05-09T22:06:42.841Z,20.93
2023-05-09T22:09:10.280Z,20.03
2023-05-09T22:11:37.720Z,19.77
2023-05-09T22:14:04.892Z,20.60
2023-05-09T22:16:32.017Z,20.67
2023-05-09T22:18:59.187Z,20.83
2023-05-09T22:21:26.332Z,20.73
2023-05-09T22:23:53.439Z,20.77
2023-05-09T22:26:21.348Z,21.23
2023-05-09T22:28:49.064Z,20.97
2023-05-09T22:31:16.240Z,21.73
2023-05-09T22:33:43.388Z,19.53
2023-05-09T22:36:10.560Z,19.10
2023-05-09T22:38:37.669Z,19.07
2023-05-09T22:41:04.767Z,17.90
2023-05-09T22:43:38.773Z,19.17
2023-05-09T22:46:06.960Z,18.97
2023-05-09T22:48:34.161Z,17.80
2023-05-09T22:51:01.263Z,19.37
2023-05-09T22:53:28.391Z,19.57
2023-05-09T22:55:55.678Z,18.20
2023-05-09T22:58:22.834Z,19.00
2023-05-09T23:00:50.025Z,18.67
2023-05-09T23:03:17.489Z,18.10
2023-05-09T23:05:44.694Z,19.93
2023-05-09T23:08:11.790Z,17.80
2023-05-09T23:10:38.929Z,19.87
2023-05-09T23:13:06.145Z,19.77
2023-05-09T23:15:33.367Z,19.93
2023-05-09T23:18:00.537Z,18.00
2023-05-09T23:20:27.697Z,19.37
2023-05-09T23:22:54.787Z,18.97
2023-05-09T23:25:22.005Z,20.73
2023-05-09T23:27:49.109Z,20.53
2023-05-09T23:30:16.596Z,18.63
2023-05-09T23:32:44.271Z,18.43
2023-05-09T23:35:11.361Z,19.13
2023-05-09T23:37:38.451Z,18.53
2023-05-09T23:40:05.929Z,18.83
2023-05-09T23:42:33.372Z,17.77
2023-05-09T23:45:00.461Z,17.80
2023-05-09T23:47:27.595Z,17.13
2023-05-09T23:49:54.677Z,15.73
2023-05-09T23:52:21.779Z,18.10
2023-05-09T23:54:48.905Z,15.77
2023-05-09T23:57:16.088Z,15.90
2023-05-09T23:59:43.246Z,16.73
